Time;durP1;ratioP1;P1;durP2;ratioP2;P2;SDS_P1;SDS_P2;PMS_P1;PMS_P2;Temp;Humidity;BMP_temperature;BMP_pressure;BME280_temperature;BME280_humidity;BME280_pressure;Samples;Min_cycle;Max_cycle;Signal;HPM_P1;HPM_P2
2021/09/29 00:01:43;;;;;;;9.77;7.30;;;13.80;14.00;;;;;;5041988;28;20135;-68
2021/09/29 00:04:12;;;;;;;9.25;7.30;;;13.70;14.60;;;;;;5037760;28;20053;-69
2021/09/29 00:06:44;;;;;;;9.52;6.50;;;13.60;14.80;;;;;;5042552;28;20041;-68
2021/09/29 00:09:11;;;;;;;7.78;6.53;;;13.70;14.70;;;;;;5041844;28;20511;-69
2021/09/29 00:11:40;;;;;;;13.95;7.13;;;13.70;15.00;;;;;;5037017;28;20071;-69
2021/09/29 00:14:10;;;;;;;9.82;6.93;;;13.70;14.70;;;;;;5037880;28;20136;-69
2021/09/29 00:16:38;;;;;;;10.02;6.85;;;13.80;14.30;;;;;;5039159;28;20486;-69
2021/09/29 00:19:06;;;;;;;8.55;6.88;;;13.80;14.50;;;;;;5031061;28;20052;-69
2021/09/29 00:21:39;;;;;;;11.70;7.37;;;13.80;14.20;;;;;;5038365;28;20316;-69
2021/09/29 00:24:07;;;;;;;13.95;7.63;;;13.80;14.00;;;;;;5041347;28;20558;-69
2021/09/29 00:26:37;;;;;;;10.85;7.93;;;13.90;13.90;;;;;;5040650;28;20470;-69
2021/09/29 00:29:05;;;;;;;8.27;7.18;;;13.90;14.10;;;;;;5037722;28;20411;-69
2021/09/29 00:31:36;;;;;;;12.13;7.97;;;13.80;14.20;;;;;;5035748;28;20105;-69
2021/09/29 00:34:08;;;;;;;9.05;6.43;;;13.90;14.10;;;;;;5044801;28;20136;-69
2021/09/29 00:36:38;;;;;;;8.88;6.95;;;13.90;14.60;;;;;;5031216;28;20128;-69
2021/09/29 00:39:07;;;;;;;8.52;7.15;;;13.80;14.80;;;;;;5039592;28;20292;-69
2021/09/29 00:41:38;;;;;;;12.02;6.80;;;13.90;14.80;;;;;;5042279;28;20065;-69
2021/09/29 00:44:11;;;;;;;11.68;8.20;;;14.00;14.70;;;;;;5040769;28;20554;-69
2021/09/29 00:46:43;;;;;;;12.25;7.90;;;14.00;14.70;;;;;;5034466;28;20047;-69
2021/09/29 00:49:12;;;;;;;12.57;9.65;;;14.00;14.20;;;;;;5021907;28;20073;-69
2021/09/29 00:51:44;;;;;;;14.40;9.95;;;13.90;14.70;;;;;;5043711;28;20045;-69
2021/09/29 00:54:12;;;;;;;12.93;9.25;;;14.00;14.80;;;;;;5033446;28;20400;-69
2021/09/29 00:56:40;;;;;;;15.23;9.10;;;13.90;15.40;;;;;;5036121;28;20041;-69
2021/09/29 00:59:10;;;;;;;13.32;9.13;;;13.80;15.70;;;;;;5038407;28;20045;-69
2021/09/29 01:01:38;;;;;;;13.55;9.05;;;13.80;15.90;;;;;;5042048;28;20041;-69
2021/09/29 01:04:08;;;;;;;15.63;8.98;;;13.80;16.40;;;;;;5019919;28;20056;-69
2021/09/29 01:06:38;;;;;;;14.23;8.88;;;13.80;17.50;;;;;;5038265;28;20068;-69
2021/09/29 01:09:17;;;;;;;12.27;9.10;;;13.70;17.60;;;;;;5023038;28;20135;-69
2021/09/29 01:11:57;;;;;;;14.07;9.85;;;13.80;17.60;;;;;;5042997;28;20411;-69
2021/09/29 01:14:33;;;;;;;15.25;9.70;;;13.80;17.60;;;;;;5038852;28;20123;-69
2021/09/29 01:17:02;;;;;;;14.95;10.13;;;13.80;17.60;;;;;;5036300;28;20037;-69
2021/09/29 01:19:53;;;;;;;14.30;9.85;;;13.80;17.60;;;;;;5025538;28;20128;-69
2021/09/29 01:22:40;;;;;;;14.30;9.93;;;13.80;17.80;;;;;;5040404;28;20107;-69
2021/09/29 01:25:20;;;;;;;15.18;11.20;;;13.70;18.30;;;;;;5038037;28;20049;-69
2021/09/29 01:27:51;;;;;;;17.50;10.73;;;13.80;17.60;;;;;;5037602;28;20140;-69
2021/09/29 01:30:19;;;;;;;15.65;10.85;;;13.80;17.60;;;;;;5039403;28;20232;-69
2021/09/29 01:32:48;;;;;;;16.40;10.23;;;13.80;17.60;;;;;;5032668;28;20575;-69
2021/09/29 01:35:18;;;;;;;15.07;11.38;;;13.80;17.60;;;;;;5033749;28;20041;-70
2021/09/29 01:37:47;;;;;;;15.95;11.40;;;13.80;17.60;;;;;;5040675;28;20044;-69
2021/09/29 01:40:19;;;;;;;15.20;10.50;;;13.70;18.50;;;;;;5041131;28;20060;-69
2021/09/29 01:42:51;;;;;;;17.13;11.75;;;13.70;18.80;;;;;;5029066;28;20046;-69
2021/09/29 01:45:19;;;;;;;17.48;11.57;;;13.70;18.90;;;;;;5031593;28;20432;-69
2021/09/29 01:47:48;;;;;;;16.13;10.80;;;13.70;19.00;;;;;;5040953;28;20037;-69
2021/09/29 01:50:25;;;;;;;15.38;10.75;;;13.60;20.00;;;;;;5042919;28;20067;-69
2021/09/29 01:52:56;;;;;;;16.75;11.65;;;13.70;20.60;;;;;;5018964;28;20044;-69
2021/09/29 01:55:28;;;;;;;18.80;11.63;;;13.70;20.50;;;;;;5041286;28;20144;-69
2021/09/29 01:57:57;;;;;;;18.08;11.77;;;13.60;20.80;;;;;;5040306;28;20057;-69
2021/09/29 02:00:26;;;;;;;16.10;11.02;;;13.70;20.40;;;;;;5036920;28;20511;-69
2021/09/29 02:02:56;;;;;;;17.13;11.00;;;13.60;21.10;;;;;;5038672;28;20053;-69
2021/09/29 02:05:29;;;;;;;14.23;10.95;;;13.60;21.50;;;;;;5043244;28;20507;-69
2021/09/29 02:07:58;;;;;;;17.52;10.75;;;13.70;21.10;;;;;;5034600;28;20143;-68
2021/09/29 02:10:26;;;;;;;19.42;11.07;;;13.70;21.10;;;;;;5038968;28;20045;-69
2021/09/29 02:12:56;;;;;;;14.30;10.43;;;13.70;21.10;;;;;;5039964;28;20049;-69
2021/09/29 02:15:24;;;;;;;18.10;11.30;;;13.60;21.50;;;;;;5034265;28;20567;-69
2021/09/29 02:17:54;;;;;;;14.85;11.30;;;13.70;21.60;;;;;;5044613;28;20057;-69
2021/09/29 02:20:22;;;;;;;16.60;10.30;;;13.70;21.20;;;;;;5052739;28;20037;-69
2021/09/29 02:22:51;;;;;;;13.18;10.75;;;13.70;21.20;;;;;;5021540;28;20045;-69
2021/09/29 02:25:19;;;;;;;17.42;10.35;;;13.70;21.20;;;;;;5039098;28;20496;-70
2021/09/29 02:27:46;;;;;;;16.73;10.30;;;13.80;21.40;;;;;;5041149;28;20136;-69
2021/09/29 02:30:25;;;;;;;19.67;10.88;;;13.70;21.50;;;;;;5042269;28;20043;-69
2021/09/29 02:32:53;;;;;;;15.40;9.68;;;13.70;21.80;;;;;;5031029;28;20496;-69
2021/09/29 02:35:21;;;;;;;14.25;9.90;;;13.80;21.90;;;;;;5024880;28;20037;-69
2021/09/29 02:37:53;;;;;;;14.82;10.18;;;13.80;21.30;;;;;;5030468;28;20041;-69
2021/09/29 02:40:22;;;;;;;13.30;9.88;;;13.80;21.20;;;;;;5041228;28;20045;-69
2021/09/29 02:42:53;;;;;;;15.23;9.55;;;13.70;22.10;;;;;;5041009;28;20041;-70
2021/09/29 02:45:21;;;;;;;12.52;9.13;;;13.70;22.30;;;;;;5027147;28;20132;-70
2021/09/29 02:47:51;;;;;;;13.45;9.70;;;13.70;21.70;;;;;;5038563;28;20048;-70
2021/09/29 02:50:20;;;;;;;14.20;9.13;;;13.70;22.00;;;;;;5043524;28;20140;-69
2021/09/29 02:52:51;;;;;;;16.10;9.20;;;13.70;21.90;;;;;;5027563;28;20040;-69
2021/09/29 02:55:19;;;;;;;13.15;9.15;;;13.70;21.10;;;;;;5045198;28;20570;-70
2021/09/29 02:57:50;;;;;;;11.38;8.25;;;13.80;21.50;;;;;;5037707;28;20048;-70
2021/09/29 03:00:18;;;;;;;14.82;9.43;;;13.80;20.60;;;;;;5040012;28;20098;-70
2021/09/29 03:02:49;;;;;;;12.68;8.57;;;13.80;19.80;;;;;;5028686;28;20044;-70
2021/09/29 03:05:19;;;;;;;10.15;7.97;;;13.90;19.40;;;;;;5030339;28;20496;-70
2021/09/29 03:07:47;;;;;;;10.32;7.13;;;13.90;18.20;;;;;;5029812;28;20037;-70
2021/09/29 03:10:15;;;;;;;13.18;8.02;;;13.80;17.60;;;;;;5041943;28;20049;-70
2021/09/29 03:12:43;;;;;;;9.80;7.32;;;13.80;17.60;;;;;;5036671;28;20065;-70
2021/09/29 03:15:14;;;;;;;12.18;6.82;;;13.80;17.60;;;;;;5019520;28;20121;-70
2021/09/29 03:17:46;;;;;;;8.80;7.07;;;13.70;17.40;;;;;;5041072;28;20554;-69
2021/09/29 03:20:18;;;;;;;11.40;7.45;;;13.70;17.00;;;;;;5043641;28;20132;-69
2021/09/29 03:22:47;;;;;;;7.70;6.50;;;13.70;15.80;;;;;;5040273;28;20144;-70
2021/09/29 03:25:16;;;;;;;8.18;6.57;;;13.70;14.80;;;;;;5043679;28;20497;-69
2021/09/29 03:27:45;;;;;;;10.35;7.13;;;13.60;14.20;;;;;;5020146;28;20543;-69
2021/09/29 03:30:14;;;;;;;8.20;6.68;;;13.70;13.90;;;;;;5021848;28;20073;-69
2021/09/29 03:32:42;;;;;;;12.35;7.25;;;13.70;13.90;;;;;;5037199;28;20041;-69
2021/09/29 03:35:12;;;;;;;9.70;6.68;;;13.70;14.00;;;;;;5039552;28;20045;-69
2021/09/29 03:37:43;;;;;;;9.88;6.68;;;13.70;13.40;;;;;;5038449;28;20052;-69
2021/09/29 03:40:16;;;;;;;12.98;7.30;;;13.70;13.10;;;;;;5043855;28;20041;-69
2021/09/29 03:42:44;;;;;;;10.05;6.70;;;13.60;13.00;;;;;;5021208;28;20036;-69
2021/09/29 03:45:14;;;;;;;8.95;6.68;;;13.60;13.30;;;;;;5027740;28;20116;-69
2021/09/29 03:47:43;;;;;;;10.68;6.45;;;13.50;13.80;;;;;;5037704;28;20058;-69
2021/09/29 03:50:17;;;;;;;9.35;6.72;;;13.50;13.80;;;;;;5021819;28;20043;-69
2021/09/29 03:52:46;;;;;;;8.85;6.60;;;13.50;13.80;;;;;;5042498;28;20514;-69
2021/09/29 03:55:18;;;;;;;8.43;6.70;;;13.50;13.80;;;;;;5046934;28;20041;-70
2021/09/29 03:57:47;;;;;;;10.05;6.75;;;13.50;13.80;;;;;;5037720;28;20488;-69
2021/09/29 04:00:16;;;;;;;13.43;7.38;;;13.40;13.80;;;;;;5041004;28;20076;-69
2021/09/29 04:02:46;;;;;;;12.40;7.22;;;13.40;13.90;;;;;;5043267;28;20136;-69
2021/09/29 04:05:14;;;;;;;12.02;7.25;;;13.40;13.80;;;;;;5036356;28;20132;-70
2021/09/29 04:07:42;;;;;;;10.65;6.95;;;13.40;14.00;;;;;;5039746;28;20091;-69
2021/09/29 04:10:13;;;;;;;8.30;6.38;;;13.40;13.80;;;;;;5042836;28;20120;-69
2021/09/29 04:12:43;;;;;;;9.07;7.38;;;13.30;14.20;;;;;;5025048;28;20046;-69
2021/09/29 04:15:15;;;;;;;14.82;7.30;;;13.30;14.70;;;;;;5021418;28;20037;-70
2021/09/29 04:17:43;;;;;;;11.10;7.18;;;13.30;14.70;;;;;;5041733;28;20122;-69
2021/09/29 04:20:19;;;;;;;14.30;7.50;;;13.30;15.10;;;;;;5039538;28;20044;-69
2021/09/29 04:22:47;;;;;;;11.93;7.20;;;13.30;14.80;;;;;;5034223;28;20099;-70
2021/09/29 04:25:20;;;;;;;10.98;6.97;;;13.30;15.70;;;;;;5034227;28;20053;-70
2021/09/29 04:27:48;;;;;;;8.68;6.68;;;13.20;15.60;;;;;;5032318;28;20493;-70
2021/09/29 04:30:16;;;;;;;10.82;6.72;;;13.20;15.30;;;;;;5044908;28;20061;-70
2021/09/29 04:32:48;;;;;;;15.07;7.78;;;13.20;16.00;;;;;;5042885;28;20053;-69
2021/09/29 04:35:20;;;;;;;9.90;6.72;;;13.20;16.20;;;;;;5035662;28;20563;-69
2021/09/29 04:37:48;;;;;;;8.48;6.05;;;13.20;17.20;;;;;;5036039;28;20129;-69
2021/09/29 04:40:23;;;;;;;9.88;6.32;;;13.20;17.20;;;;;;5036439;28;20118;-70
2021/09/29 04:42:51;;;;;;;8.50;6.72;;;13.20;17.20;;;;;;5047343;28;20045;-69
2021/09/29 04:45:23;;;;;;;9.77;6.35;;;13.20;17.20;;;;;;5039316;28;20052;-69
2021/09/29 04:47:57;;;;;;;9.80;6.75;;;13.20;17.70;;;;;;5035429;28;20057;-70
2021/09/29 04:50:29;;;;;;;8.05;5.28;;;13.20;17.30;;;;;;5044531;28;20407;-69
2021/09/29 04:53:01;;;;;;;9.68;6.30;;;13.20;17.20;;;;;;5038951;28;20095;-69
2021/09/29 04:55:32;;;;;;;9.00;5.55;;;13.30;17.00;;;;;;5032552;28;20116;-69
2021/09/29 04:58:04;;;;;;;11.90;6.22;;;13.30;16.80;;;;;;5037468;28;20628;-69
2021/09/29 05:00:39;;;;;;;9.50;5.50;;;13.40;16.40;;;;;;5039227;28;20045;-69
2021/09/29 05:03:12;;;;;;;15.55;5.32;;;13.40;16.10;;;;;;5030712;28;20520;-70
2021/09/29 05:05:42;;;;;;;7.72;5.75;;;13.50;16.10;;;;;;5022424;28;20071;-70
2021/09/29 05:08:21;;;;;;;10.60;5.15;;;13.40;16.10;;;;;;5038163;28;20049;-69
2021/09/29 05:10:59;;;;;;;12.80;5.25;;;13.40;16.30;;;;;;5038394;28;20151;-70
2021/09/29 05:13:29;;;;;;;8.95;5.38;;;13.40;16.60;;;;;;5037918;28;20165;-69
2021/09/29 05:15:58;;;;;;;7.80;5.57;;;13.40;16.30;;;;;;5035185;28;20052;-68
2021/09/29 05:18:26;;;;;;;8.98;5.45;;;13.40;16.80;;;;;;5035792;28;20045;-69
2021/09/29 05:20:57;;;;;;;8.60;5.20;;;13.40;16.90;;;;;;5024193;28;20566;-69
2021/09/29 05:23:25;;;;;;;9.20;5.07;;;13.40;17.00;;;;;;5035809;28;20123;-69
2021/09/29 05:25:57;;;;;;;9.30;5.53;;;13.30;16.60;;;;;;5018526;28;20072;-70
2021/09/29 05:28:28;;;;;;;6.75;5.38;;;13.30;17.20;;;;;;5024821;28;20049;-70
2021/09/29 05:30:58;;;;;;;8.27;5.50;;;13.30;17.30;;;;;;5041982;28;20053;-71
2021/09/29 05:33:26;;;;;;;10.32;5.18;;;13.30;17.30;;;;;;5039305;28;20083;-71
2021/09/29 05:35:54;;;;;;;7.40;5.45;;;13.20;17.20;;;;;;5036744;28;20052;-70
2021/09/29 05:38:23;;;;;;;11.20;5.50;;;13.20;17.20;;;;;;5029841;28;20041;-69
2021/09/29 05:40:52;;;;;;;11.48;5.30;;;13.20;17.20;;;;;;5036533;28;20484;-69
2021/09/29 05:43:21;;;;;;;12.32;6.10;;;13.20;17.20;;;;;;5028127;28;20049;-70
2021/09/29 05:45:52;;;;;;;8.40;5.10;;;13.20;17.20;;;;;;5027006;28;20045;-71
2021/09/29 05:48:24;;;;;;;8.47;5.17;;;13.10;17.20;;;;;;5033156;28;20029;-70
2021/09/29 05:50:53;;;;;;;10.55;5.05;;;13.20;17.20;;;;;;5042152;28;20061;-71
2021/09/29 05:53:21;;;;;;;7.72;5.20;;;13.20;17.20;;;;;;5029930;28;20796;-69
2021/09/29 05:55:53;;;;;;;8.10;5.00;;;13.20;17.20;;;;;;5040045;28;20231;-69
2021/09/29 05:58:24;;;;;;;11.77;5.00;;;13.20;17.10;;;;;;5028902;28;20045;-69
2021/09/29 06:00:52;;;;;;;10.38;5.30;;;13.30;16.50;;;;;;5036544;28;20072;-69
2021/09/29 06:03:27;;;;;;;9.85;4.60;;;13.30;15.70;;;;;;5031857;28;20080;-71
2021/09/29 06:05:55;;;;;;;6.97;4.47;;;13.50;15.50;;;;;;5046294;28;20057;-70
2021/09/29 06:08:27;;;;;;;6.57;4.50;;;13.60;13.90;;;;;;5041539;28;20053;-70
2021/09/29 06:10:57;;;;;;;10.23;4.68;;;13.70;13.90;;;;;;5041455;28;20055;-69
2021/09/29 06:13:29;;;;;;;7.00;4.00;;;13.80;13.20;;;;;;5045830;28;20053;-69
2021/09/29 06:15:57;;;;;;;9.00;4.10;;;13.90;12.20;;;;;;5042996;28;20049;-70
2021/09/29 06:18:25;;;;;;;6.72;4.03;;;14.00;12.00;;;;;;5039009;28;21366;-70
2021/09/29 06:20:57;;;;;;;5.38;3.65;;;14.00;11.20;;;;;;5043904;28;20041;-69
2021/09/29 06:23:25;;;;;;;16.20;4.20;;;14.10;11.30;;;;;;5032850;28;20606;-69
2021/09/29 06:26:01;;;;;;;12.48;3.55;;;14.20;10.70;;;;;;5040070;28;20079;-69
2021/09/29 06:28:37;;;;;;;6.13;3.15;;;14.20;10.70;;;;;;4995064;28;20473;-70
2021/09/29 06:31:08;;;;;;;7.43;3.30;;;14.40;10.70;;;;;;5033377;28;20441;-71
2021/09/29 06:33:40;;;;;;;8.13;3.17;;;14.60;9.00;;;;;;5014048;28;20076;-70
2021/09/29 06:36:09;;;;;;;4.65;2.70;;;14.70;8.00;;;;;;5042053;28;20045;-69
2021/09/29 06:38:37;;;;;;;7.90;2.80;;;14.80;6.70;;;;;;5045514;28;20099;-69
2021/09/29 06:41:09;;;;;;;4.07;2.95;;;14.80;6.30;;;;;;5039362;28;20145;-70
2021/09/29 06:43:39;;;;;;;7.07;2.70;;;14.70;6.60;;;;;;5044492;28;20066;-69
2021/09/29 06:46:07;;;;;;;5.72;2.95;;;14.60;6.50;;;;;;5038725;28;20041;-72
2021/09/29 06:48:38;;;;;;;6.45;2.83;;;14.60;7.10;;;;;;5035738;28;20054;-70
2021/09/29 06:51:10;;;;;;;4.03;3.08;;;14.70;6.50;;;;;;5037456;28;20129;-69
2021/09/29 06:53:39;;;;;;;6.90;3.17;;;14.80;5.40;;;;;;5038085;28;20151;-70
2021/09/29 06:56:14;;;;;;;7.07;2.92;;;15.00;4.00;;;;;;5037900;28;20045;-71
2021/09/29 06:58:45;;;;;;;4.20;2.80;;;15.10;3.80;;;;;;5044958;28;20055;-70
2021/09/29 07:01:15;;;;;;;9.95;2.67;;;15.20;3.00;;;;;;5024178;28;20037;-70
2021/09/29 07:03:44;;;;;;;8.50;3.25;;;15.40;2.30;;;;;;5031418;28;20080;-69
2021/09/29 07:06:12;;;;;;;4.95;2.60;;;15.40;1.70;;;;;;5026990;28;20119;-70
2021/09/29 07:08:40;;;;;;;5.47;2.72;;;15.50;1.00;;;;;;5024414;28;20052;-70
2021/09/29 07:11:10;;;;;;;9.48;2.60;;;15.70;1.00;;;;;;5022958;28;20096;-69
2021/09/29 07:13:40;;;;;;;8.45;2.47;;;15.80;1.00;;;;;;5041070;28;20099;-69
2021/09/29 07:16:10;;;;;;;4.65;2.45;;;15.80;1.00;;;;;;5034952;28;20073;-69
2021/09/29 07:18:42;;;;;;;6.60;2.85;;;15.70;1.00;;;;;;5030020;28;20049;-70
2021/09/29 07:21:10;;;;;;;5.90;2.60;;;15.60;1.00;;;;;;5041698;28;20077;-70
2021/09/29 07:23:49;;;;;;;3.95;2.15;;;15.70;1.00;;;;;;5042546;28;20439;-71
2021/09/29 07:26:17;;;;;;;16.58;9.60;;;15.90;1.00;;;;;;5035550;28;20113;-70
2021/09/29 07:28:50;;;;;;;4.40;2.35;;;16.10;1.00;;;;;;5021579;28;20041;-71
2021/09/29 07:31:21;;;;;;;4.07;2.30;;;16.00;1.00;;;;;;5034786;28;20496;-69
2021/09/29 07:33:50;;;;;;;4.90;2.42;;;16.10;1.00;;;;;;5036152;28;20049;-70
2021/09/29 07:36:23;;;;;;;6.13;2.10;;;16.00;1.00;;;;;;5040939;28;20175;-70
2021/09/29 07:38:51;;;;;;;4.35;1.90;;;16.20;1.00;;;;;;5043865;28;20138;-68
2021/09/29 07:41:19;;;;;;;3.67;1.88;;;16.30;1.00;;;;;;5043666;28;20160;-70
2021/09/29 07:43:48;;;;;;;5.85;1.90;;;16.30;1.00;;;;;;5036547;28;20087;-68
2021/09/29 07:46:17;;;;;;;4.20;1.63;;;16.40;1.00;;;;;;5030759;28;20088;-69
2021/09/29 07:48:49;;;;;;;6.63;1.67;;;16.70;1.00;;;;;;5038479;28;20373;-70
2021/09/29 07:51:17;;;;;;;4.25;1.45;;;16.70;1.00;;;;;;5039250;28;20509;-70
2021/09/29 07:53:50;;;;;;;5.05;1.60;;;16.60;1.00;;;;;;5043667;28;20037;-69
2021/09/29 07:56:18;;;;;;;4.50;1.95;;;16.70;1.00;;;;;;5038463;28;20608;-69
2021/09/29 07:58:46;;;;;;;3.97;1.52;;;16.50;1.00;;;;;;5040397;28;20045;-69
2021/09/29 08:01:18;;;;;;;5.25;1.70;;;16.30;1.00;;;;;;5030091;28;20047;-69
2021/09/29 08:03:46;;;;;;;6.68;1.77;;;16.30;1.00;;;;;;5024582;28;20115;-69
2021/09/29 08:06:21;;;;;;;5.90;2.08;;;16.30;1.00;;;;;;5020588;28;20167;-70
2021/09/29 08:08:51;;;;;;;3.03;1.40;;;16.50;1.00;;;;;;5023329;28;20067;-71
2021/09/29 08:11:20;;;;;;;8.70;1.83;;;16.70;1.00;;;;;;5038703;28;20061;-70
2021/09/29 08:13:49;;;;;;;6.28;3.45;;;16.80;1.00;;;;;;5024801;28;20067;-69
2021/09/29 08:16:22;;;;;;;4.50;1.63;;;16.90;1.00;;;;;;5040968;28;20413;-69
2021/09/29 08:18:52;;;;;;;5.45;2.25;;;17.00;1.00;;;;;;5036463;28;20057;-69
2021/09/29 08:21:27;;;;;;;7.32;1.98;;;17.00;1.00;;;;;;5023484;28;20364;-70
2021/09/29 08:24:05;;;;;;;5.25;1.85;;;17.10;1.00;;;;;;5037653;28;20040;-70
2021/09/29 08:26:50;;;;;;;2.63;1.27;;;17.30;1.00;;;;;;5020203;28;20073;-70
2021/09/29 08:29:33;;;;;;;2.47;1.30;;;17.40;1.00;;;;;;5038482;28;20127;-70
2021/09/29 08:32:08;;;;;;;5.93;1.20;;;17.50;1.00;;;;;;5033877;28;20041;-69
2021/09/29 08:34:43;;;;;;;3.38;1.65;;;17.40;1.00;;;;;;5043542;28;20102;-70
2021/09/29 08:37:32;;;;;;;4.13;1.50;;;17.60;1.00;;;;;;5037941;28;20401;-69
2021/09/29 08:40:22;;;;;;;3.40;1.20;;;17.60;1.00;;;;;;5036947;28;20120;-70
2021/09/29 08:43:07;;;;;;;4.75;1.60;;;17.80;1.00;;;;;;5040903;28;20068;-69
2021/09/29 08:45:41;;;;;;;7.35;1.70;;;17.80;1.00;;;;;;5042078;28;20041;-69
2021/09/29 08:48:21;;;;;;;2.88;1.40;;;17.80;1.00;;;;;;5021656;28;20072;-69
2021/09/29 08:53:56;;;;;;;4.68;1.20;;;17.90;1.00;;;;;;5153540;27;20912;-69
2021/09/29 09:16:30;;;;;;;3.50;1.00;;;18.60;1.00;;;;;;5116989;27;20703;-69
2021/09/29 09:19:02;;;;;;;2.85;1.00;;;18.70;1.00;;;;;;5103676;27;20061;-70
2021/09/29 09:21:31;;;;;;;4.75;0.80;;;18.40;1.00;;;;;;5116928;27;20074;-69
2021/09/29 09:24:18;;;;;;;3.08;1.00;;;18.90;1.00;;;;;;5114312;27;20047;-69
2021/09/29 09:26:59;;;;;;;5.28;1.27;;;19.00;1.00;;;;;;5117845;27;20038;-68
2021/09/29 09:29:43;;;;;;;3.25;1.13;;;19.10;1.00;;;;;;5119674;27;20044;-69
2021/09/29 09:32:13;;;;;;;9.60;1.52;;;19.10;1.00;;;;;;5115684;27;20123;-70
2021/09/29 09:34:42;;;;;;;3.55;0.98;;;19.10;1.00;;;;;;5113885;28;20055;-68
2021/09/29 09:37:13;;;;;;;3.00;0.95;;;19.70;1.00;;;;;;5099469;28;20044;-70
2021/09/29 09:39:42;;;;;;;3.67;1.20;;;19.80;1.00;;;;;;5119361;28;20047;-69
2021/09/29 09:42:14;;;;;;;4.22;1.20;;;19.20;1.00;;;;;;5101017;28;20064;-69
2021/09/29 09:44:43;;;;;;;2.03;1.05;;;18.30;1.00;;;;;;5102553;28;20067;-69
2021/09/29 09:47:21;;;;;;;2.15;1.00;;;18.30;1.00;;;;;;5119859;27;20043;-70
2021/09/29 09:49:52;;;;;;;2.65;1.20;;;18.60;1.00;;;;;;5116816;27;20143;-70
2021/09/29 09:52:28;;;;;;;3.80;1.02;;;18.40;1.00;;;;;;5115206;27;20035;-69
2021/09/29 09:55:03;;;;;;;4.38;1.48;;;18.40;1.00;;;;;;5120576;27;20116;-70
2021/09/29 09:57:34;;;;;;;2.65;1.58;;;18.40;1.00;;;;;;5115029;27;20047;-69
2021/09/29 10:00:08;;;;;;;3.63;1.02;;;18.20;1.00;;;;;;5117218;27;20083;-69
2021/09/29 10:02:41;;;;;;;3.63;1.25;;;18.30;1.00;;;;;;5118290;27;20147;-70
2021/09/29 10:05:17;;;;;;;2.97;1.20;;;18.20;1.00;;;;;;5103586;28;20047;-69
2021/09/29 10:07:46;;;;;;;1.88;0.90;;;18.10;1.00;;;;;;5099618;28;20047;-69
2021/09/29 10:10:23;;;;;;;2.42;1.15;;;18.10;1.00;;;;;;5107801;28;20122;-69
2021/09/29 10:13:15;;;;;;;7.75;1.58;;;18.20;1.00;;;;;;5101484;28;20043;-69
2021/09/29 10:27:08;;;;;;;4.72;1.30;;;19.60;1.00;;;;;;5066633;28;20100;-69
2021/09/29 10:29:40;;;;;;;4.13;1.00;;;19.50;1.00;;;;;;5102513;28;20048;-72
2021/09/29 10:32:18;;;;;;;3.90;1.17;;;19.60;1.00;;;;;;5105226;28;20067;-70
2021/09/29 10:35:00;;;;;;;3.35;1.15;;;19.50;1.00;;;;;;5099472;28;20044;-70
2021/09/29 10:37:59;;;;;;;4.13;1.05;;;19.00;1.00;;;;;;5099269;28;20155;-68
2021/09/29 10:40:53;;;;;;;2.05;1.00;;;19.00;1.00;;;;;;5088319;28;20049;-70
2021/09/29 10:43:30;;;;;;;1.58;0.60;;;18.90;1.00;;;;;;5101148;28;20097;-70
2021/09/29 10:46:05;;;;;;;3.85;1.10;;;18.80;1.00;;;;;;5099322;28;20049;-69
2021/09/29 10:48:51;;;;;;;7.93;0.98;;;18.80;1.00;;;;;;5085672;28;20040;-69
2021/09/29 10:51:46;;;;;;;5.40;0.80;;;18.70;1.00;;;;;;5099753;28;20044;-70
2021/09/29 11:12:01;;;;;;;2.45;0.80;;;18.70;1.00;;;;;;5052226;28;20478;-70
2021/09/29 11:29:17;;;;;;;2.13;0.70;;;19.70;1.00;;;;;;5099925;28;20131;-69
2021/09/29 11:31:48;;;;;;;2.05;0.70;;;19.80;1.00;;;;;;5103447;28;20140;-69
2021/09/29 11:34:21;;;;;;;5.47;0.80;;;20.00;1.00;;;;;;5095746;28;20509;-68
2021/09/29 11:37:04;;;;;;;6.00;1.00;;;20.20;1.00;;;;;;5102068;28;21118;-69
2021/09/29 12:08:05;;;;;;;2.40;0.80;;;20.40;1.00;;;;;;5072951;28;20047;-69
2021/09/29 12:10:49;;;;;;;2.88;0.80;;;20.20;1.00;;;;;;5097815;28;20044;-71
2021/09/29 12:13:18;;;;;;;1.25;0.65;;;20.30;1.00;;;;;;5095311;28;20098;-69
2021/09/29 12:15:48;;;;;;;3.00;0.90;;;20.20;1.00;;;;;;5096217;28;20036;-69
2021/09/29 12:18:22;;;;;;;2.75;0.52;;;20.20;1.00;;;;;;5082134;28;20130;-71
2021/09/29 12:20:53;;;;;;;3.22;0.60;;;20.20;1.00;;;;;;5104389;28;20073;-70
2021/09/29 12:23:27;;;;;;;1.95;0.70;;;20.70;1.00;;;;;;5094217;28;20134;-70
2021/09/29 12:26:20;;;;;;;3.10;0.75;;;20.50;1.00;;;;;;5101360;28;20035;-70
2021/09/29 12:29:01;;;;;;;4.72;0.65;;;20.60;1.00;;;;;;5100734;28;20127;-70
2021/09/29 12:31:54;;;;;;;2.20;0.95;;;21.10;1.00;;;;;;5100911;28;20043;-70
2021/09/29 12:37:12;;;;;;;3.15;0.65;;;21.20;1.00;;;;;;5086170;28;20120;-70
2021/09/29 12:39:44;;;;;;;1.80;0.52;;;20.50;1.00;;;;;;5103637;28;20482;-70
2021/09/29 12:42:39;;;;;;;1.55;0.75;;;20.80;1.00;;;;;;5102710;28;20037;-69
2021/09/29 12:45:08;;;;;;;3.22;0.68;;;20.40;1.00;;;;;;5099416;28;20046;-68
2021/09/29 12:47:44;;;;;;;7.70;0.80;;;20.00;1.00;;;;;;5101648;28;20143;-69
2021/09/29 12:50:17;;;;;;;2.55;1.00;;;20.10;1.00;;;;;;5085305;28;20097;-68
2021/09/29 12:52:52;;;;;;;6.35;1.15;;;20.00;1.00;;;;;;5072775;28;20093;-69
2021/09/29 12:55:32;;;;;;;10.40;1.30;;;20.20;1.00;;;;;;5083984;28;20047;-69
2021/09/29 12:58:04;;;;;;;3.67;0.65;;;20.10;1.00;;;;;;5100666;28;20070;-69
2021/09/29 13:00:31;;;;;;;6.55;0.80;;;20.10;1.00;;;;;;5101904;28;20155;-68
2021/09/29 13:03:02;;;;;;;3.72;0.70;;;20.10;1.00;;;;;;5097709;28;20143;-69
2021/09/29 13:05:34;;;;;;;15.23;1.63;;;20.00;1.00;;;;;;5100372;28;20524;-68
2021/09/29 13:08:02;;;;;;;5.75;0.98;;;20.20;1.00;;;;;;5072145;28;20063;-68
2021/09/29 13:10:30;;;;;;;5.30;0.63;;;20.40;1.00;;;;;;5064272;28;20486;-68
2021/09/29 13:12:59;;;;;;;0.90;0.30;;;20.80;1.00;;;;;;5083439;28;20040;-69
2021/09/29 13:15:39;;;;;;;1.63;0.60;;;20.90;1.00;;;;;;5102755;28;20081;-70
2021/09/29 13:18:10;;;;;;;9.60;1.27;;;20.30;1.00;;;;;;5073976;28;20818;-69
2021/09/29 13:20:41;;;;;;;3.63;0.60;;;20.10;1.00;;;;;;5080730;28;20103;-68
2021/09/29 13:23:14;;;;;;;2.10;0.60;;;19.90;1.00;;;;;;5077805;28;20036;-68
2021/09/29 13:36:46;;;;;;;4.70;0.65;;;18.30;1.00;;;;;;5076063;28;20101;-69
2021/09/29 13:39:16;;;;;;;1.02;0.50;;;18.30;1.00;;;;;;5083508;28;20052;-67
2021/09/29 13:41:46;;;;;;;3.10;0.75;;;17.80;1.00;;;;;;5083412;28;20410;-71
2021/09/29 13:44:14;;;;;;;2.97;0.70;;;18.10;1.00;;;;;;5079978;28;20093;-68
2021/09/29 13:46:57;;;;;;;5.07;0.88;;;18.00;1.00;;;;;;5084558;28;20491;-68
2021/09/29 13:49:28;;;;;;;0.93;0.45;;;17.90;1.00;;;;;;5083045;28;20046;-69
2021/09/29 13:51:58;;;;;;;2.95;0.68;;;17.60;1.00;;;;;;5082157;28;20040;-69
2021/09/29 13:54:27;;;;;;;4.90;0.85;;;17.40;1.00;;;;;;5084470;28;20549;-69
2021/09/29 13:56:58;;;;;;;6.38;1.30;;;17.20;1.00;;;;;;5081418;28;20044;-70
2021/09/29 13:59:37;;;;;;;5.22;1.42;;;15.60;11.60;;;;;;5080720;28;20038;-69
2021/09/29 14:30:18;;;;;;;2.42;0.70;;;13.80;20.50;;;;;;5019481;28;20041;-69
2021/09/29 14:32:56;;;;;;;;;;;14.00;24.80;;;;;;5084662;28;20086;-68
2021/09/29 14:35:28;;;;;;;2.03;0.75;;;14.00;22.80;;;;;;5104930;28;19928;-69
2021/09/29 14:38:01;;;;;;;1.58;0.60;;;13.80;20.00;;;;;;5102863;28;20043;-70
2021/09/29 14:40:35;;;;;;;4.65;0.80;;;13.90;23.90;;;;;;5100510;28;20536;-69
2021/09/29 14:43:06;;;;;;;0.98;0.50;;;13.80;22.00;;;;;;5100608;28;20048;-69
2021/09/29 14:45:35;;;;;;;3.70;0.95;;;13.80;23.20;;;;;;5106201;28;22035;-69
2021/09/29 14:48:06;;;;;;;0.55;0.40;;;13.80;24.60;;;;;;5098363;28;20047;-70
2021/09/29 14:50:43;;;;;;;1.85;0.60;;;13.80;25.60;;;;;;5100350;28;20048;-68
2021/09/29 14:53:12;;;;;;;1.15;0.90;;;13.60;25.20;;;;;;5104764;28;20120;-69
2021/09/29 14:55:40;;;;;;;0.93;0.70;;;13.80;30.60;;;;;;5100937;28;20122;-68
2021/09/29 14:58:09;;;;;;;2.85;0.80;;;13.80;31.80;;;;;;5100171;27;21340;-68
2021/09/29 15:00:37;;;;;;;1.88;1.05;;;13.80;27.00;;;;;;5108058;28;20043;-69
2021/09/29 15:03:09;;;;;;;0.88;0.50;;;13.80;27.00;;;;;;5079945;28;20044;-69
2021/09/29 15:05:44;;;;;;;1.88;0.43;;;13.90;28.70;;;;;;5101108;28;20046;-67
2021/09/29 15:08:12;;;;;;;2.13;0.80;;;13.70;24.60;;;;;;5103791;28;20079;-69
2021/09/29 15:10:42;;;;;;;2.65;0.75;;;13.80;28.10;;;;;;5100404;28;20055;-68
2021/09/29 15:13:11;;;;;;;2.85;0.73;;;13.80;26.80;;;;;;5100086;28;20046;-69
2021/09/29 15:15:49;;;;;;;1.15;0.63;;;13.90;24.80;;;;;;5089297;27;20081;-68
2021/09/29 15:18:23;;;;;;;2.92;1.02;;;14.00;24.80;;;;;;5099324;28;20043;-68
2021/09/29 15:21:15;;;;;;;2.45;0.90;;;14.00;23.50;;;;;;5099756;28;20663;-69
2021/09/29 15:46:22;;;;;;;2.88;0.80;;;14.10;16.30;;;;;;5088333;28;20125;-69
2021/09/29 15:48:58;;;;;;;0.75;0.50;;;14.10;16.30;;;;;;5092636;28;20128;-68
2021/09/29 15:51:38;;;;;;;3.53;0.70;;;13.90;14.10;;;;;;5093231;28;20066;-69
2021/09/29 15:54:16;;;;;;;1.10;0.73;;;14.00;15.80;;;;;;5083553;28;20069;-69